createdAt,value
2019-01-04T00:01:36.141Z,15.73
2019-01-04T00:04:04.773Z,15.73
2019-01-04T00:06:33.232Z,17.07
2019-01-04T00:09:01.734Z,17.90
2019-01-04T00:11:30.436Z,14.63
2019-01-04T00:13:58.944Z,13.97
2019-01-04T00:16:27.487Z,12.40
2019-01-04T00:18:55.990Z,15.20
2019-01-04T00:21:24.547Z,17.30
2019-01-04T00:23:53.116Z,19.43
2019-01-04T00:26:21.649Z,14.63
2019-01-04T00:28:50.182Z,19.30
2019-01-04T00:31:18.741Z,18.00
2019-01-04T00:33:47.224Z,16.23
2019-01-04T00:36:15.780Z,17.23
2019-01-04T00:38:44.530Z,16.93
2019-01-04T00:41:13.014Z,18.13
2019-01-04T00:43:41.480Z,13.23
2019-01-04T00:46:10.390Z,15.40
2019-01-04T00:48:38.875Z,20.53
2019-01-04T00:51:07.468Z,14.37
2019-01-04T00:53:35.994Z,13.63
2019-01-04T00:56:43.164Z,28.77
2019-01-04T00:59:51.892Z,15.70
2019-01-04T01:02:59.118Z,23.03
2019-01-04T01:06:06.292Z,15.30
2019-01-04T01:09:13.580Z,17.33
2019-01-04T01:12:22.051Z,19.90
2019-01-04T01:15:29.286Z,16.33
2019-01-04T01:21:37.728Z,13.10
2019-01-04T01:24:45.215Z,21.97
2019-01-04T01:27:52.334Z,15.73
2019-01-04T01:31:01.146Z,16.30
2019-01-04T01:34:08.343Z,14.63
2019-01-04T01:37:15.572Z,17.43
2019-01-04T01:40:22.795Z,13.00
2019-01-04T01:43:31.267Z,18.47
2019-01-04T01:46:39.746Z,21.43
2019-01-04T01:49:48.274Z,17.27
2019-01-04T01:52:37.702Z,18.60
2019-01-04T01:55:06.229Z,17.90
2019-01-04T01:57:34.816Z,14.90
2019-01-04T02:00:03.389Z,22.50
2019-01-04T02:02:32.238Z,16.63
2019-01-04T02:05:00.787Z,19.50
2019-01-04T02:07:29.335Z,15.93
2019-01-04T02:09:57.755Z,17.80
2019-01-04T02:12:26.793Z,15.17
2019-01-04T02:14:55.363Z,14.13
2019-01-04T02:17:23.910Z,16.00
2019-01-04T02:19:52.387Z,16.03
2019-01-04T02:22:20.922Z,18.37
2019-01-04T02:24:49.714Z,21.93
2019-01-04T02:27:18.239Z,26.00
2019-01-04T02:29:46.813Z,21.60
2019-01-04T02:32:15.269Z,25.00
2019-01-04T02:34:43.773Z,16.10
2019-01-04T02:37:52.479Z,16.70
2019-01-04T02:40:21.008Z,16.33
2019-01-04T02:42:49.522Z,24.13
2019-01-04T02:45:18.337Z,25.70
2019-01-04T02:47:46.961Z,16.40
2019-01-04T02:50:15.454Z,31.87
2019-01-04T02:52:44.288Z,21.03
2019-01-04T02:55:13.287Z,18.77
2019-01-04T02:57:41.750Z,18.50
2019-01-04T03:00:10.256Z,17.50
2019-01-04T03:02:38.783Z,23.67
2019-01-04T03:05:07.287Z,21.33
2019-01-04T03:07:35.859Z,22.77
2019-01-04T03:15:54.032Z,24.47
2019-01-04T03:18:22.530Z,18.17
2019-01-04T03:20:51.569Z,20.17
2019-01-04T03:23:20.055Z,23.87
2019-01-04T03:25:48.829Z,24.73
2019-01-04T03:28:17.407Z,26.50
2019-01-04T03:30:45.844Z,20.47
2019-01-04T03:33:14.529Z,25.17
2019-01-04T03:35:43.123Z,24.30
2019-01-04T03:38:11.657Z,28.77
2019-01-04T03:40:40.196Z,27.20
2019-01-04T03:43:08.692Z,26.13
2019-01-04T03:45:37.215Z,28.30
2019-01-04T03:48:05.726Z,24.63
2019-01-04T03:50:34.205Z,23.40
2019-01-04T03:53:02.709Z,28.77
2019-01-04T03:55:31.204Z,25.73
2019-01-04T04:00:38.333Z,26.70
2019-01-04T04:03:06.870Z,25.40
2019-01-04T04:05:35.412Z,32.97
2019-01-04T04:08:03.909Z,30.27
2019-01-04T04:10:32.524Z,30.70
2019-01-04T04:13:00.987Z,36.30
2019-01-04T04:15:29.951Z,24.73
2019-01-04T04:17:58.404Z,33.00
2019-01-04T04:20:26.872Z,38.17
2019-01-04T04:22:55.278Z,33.30
2019-01-04T04:25:24.298Z,31.00
2019-01-04T04:30:41.797Z,30.87
2019-01-04T04:33:10.234Z,34.50
2019-01-04T04:35:38.777Z,31.47
2019-01-04T04:38:07.262Z,30.37
2019-01-04T04:40:36.079Z,33.17
2019-01-04T04:43:04.643Z,51.23
2019-01-04T04:45:33.226Z,40.50
2019-01-04T04:48:01.684Z,43.93
2019-01-04T04:50:30.156Z,34.17
2019-01-04T04:52:58.716Z,34.87
2019-01-04T04:55:27.587Z,40.30
2019-01-04T04:57:56.078Z,33.80
2019-01-04T05:00:24.574Z,38.50
2019-01-04T05:02:53.099Z,41.63
2019-01-04T05:05:21.926Z,36.10
2019-01-04T05:07:50.716Z,39.07
2019-01-04T05:10:19.175Z,43.93
2019-01-04T05:12:48.091Z,46.60
2019-01-04T05:15:16.608Z,36.83
2019-01-04T05:17:45.119Z,35.50
2019-01-04T05:20:13.635Z,40.13
2019-01-04T05:22:42.090Z,39.23
2019-01-04T05:25:10.917Z,39.03
2019-01-04T05:27:39.430Z,34.53
2019-01-04T05:30:08.014Z,37.43
2019-01-04T05:32:36.454Z,34.93
2019-01-04T05:37:59.639Z,36.20
2019-01-04T05:40:28.213Z,35.70
2019-01-04T05:43:10.817Z,48.87
2019-01-04T05:45:46.170Z,35.27
2019-01-04T05:48:14.726Z,34.50
2019-01-04T05:50:43.272Z,41.20
2019-01-04T05:53:11.818Z,36.70
2019-01-04T05:55:40.316Z,36.77
2019-01-04T05:58:08.878Z,35.97
2019-01-04T06:00:37.340Z,40.80
2019-01-04T06:03:05.920Z,30.50
2019-01-04T06:05:34.648Z,36.33
2019-01-04T06:08:03.066Z,33.00
2019-01-04T06:10:31.505Z,33.83
2019-01-04T06:13:00.001Z,40.43
2019-01-04T06:15:28.567Z,38.93
2019-01-04T06:17:57.136Z,31.73
2019-01-04T06:20:25.596Z,37.00
2019-01-04T06:22:54.238Z,43.10
2019-01-04T06:25:22.693Z,42.80
2019-01-04T06:27:51.173Z,35.70
2019-01-04T06:30:19.720Z,36.80
2019-01-04T06:32:48.185Z,35.07
2019-01-04T06:35:16.687Z,30.83
2019-01-04T06:37:45.140Z,38.13
2019-01-04T06:40:13.729Z,36.37
2019-01-04T06:42:42.161Z,29.43
2019-01-04T06:45:10.656Z,32.23
2019-01-04T06:47:39.179Z,34.67
2019-01-04T06:50:47.627Z,41.80
2019-01-04T06:53:16.098Z,38.80
2019-01-04T06:56:24.605Z,36.97
2019-01-04T06:58:53.128Z,35.70
2019-01-04T07:01:21.762Z,41.20
2019-01-04T07:03:50.144Z,34.83
2019-01-04T07:06:18.717Z,33.57
2019-01-04T07:08:47.236Z,32.53
2019-01-04T07:11:15.726Z,49.43
2019-01-04T07:13:44.581Z,38.10
2019-01-04T07:16:13.096Z,40.83
2019-01-04T07:18:41.562Z,45.97
2019-01-04T07:21:10.106Z,35.93
2019-01-04T07:23:38.858Z,38.23
2019-01-04T07:26:07.700Z,33.43
2019-01-04T07:28:36.378Z,39.40
2019-01-04T07:31:04.965Z,35.70
2019-01-04T07:33:33.540Z,35.83
2019-01-04T07:36:02.350Z,33.67
2019-01-04T07:38:30.891Z,38.63
2019-01-04T07:41:00.924Z,35.50
2019-01-04T07:46:05.204Z,30.47
2019-01-04T07:48:33.665Z,32.50
2019-01-04T07:51:02.181Z,33.30
2019-01-04T07:53:31.040Z,34.57
2019-01-04T07:56:00.620Z,41.90
2019-01-04T07:58:29.990Z,31.33
2019-01-04T08:00:58.622Z,46.13
2019-01-04T08:03:27.124Z,40.77
2019-01-04T08:05:56.066Z,44.27
2019-01-04T08:08:24.497Z,37.00
2019-01-04T08:10:53.093Z,38.00
2019-01-04T08:13:21.509Z,36.30
2019-01-04T08:15:50.056Z,31.53
2019-01-04T08:18:18.613Z,31.93
2019-01-04T08:20:47.124Z,33.87
2019-01-04T08:23:15.688Z,36.20
2019-01-04T08:25:44.216Z,30.93
2019-01-04T08:28:13.079Z,42.40
2019-01-04T08:30:41.757Z,38.97
2019-01-04T08:33:10.344Z,31.43
2019-01-04T08:35:38.897Z,35.40
2019-01-04T08:38:07.385Z,29.13
2019-01-04T08:40:35.916Z,32.13
2019-01-04T08:43:04.499Z,32.73
2019-01-04T08:45:33.390Z,30.90
2019-01-04T08:48:01.920Z,28.20
2019-01-04T08:50:30.498Z,30.50
2019-01-04T08:52:59.081Z,27.07
2019-01-04T08:55:27.672Z,30.43
2019-01-04T08:57:56.211Z,32.00
2019-01-04T09:00:25.017Z,33.37
2019-01-04T09:02:53.575Z,29.23
2019-01-04T09:05:22.132Z,26.83
2019-01-04T09:07:50.661Z,32.77
2019-01-04T09:10:19.341Z,35.13
2019-01-04T09:12:48.025Z,34.40
2019-01-04T09:15:16.685Z,29.97
2019-01-04T09:17:45.152Z,29.60
2019-01-04T09:20:13.792Z,39.40
2019-01-04T09:22:42.314Z,31.67
2019-01-04T09:25:10.877Z,30.27
2019-01-04T09:27:39.403Z,37.97
2019-01-04T09:30:47.881Z,35.00
2019-01-04T09:33:16.418Z,35.07
2019-01-04T09:35:44.925Z,34.77
2019-01-04T09:38:13.583Z,33.83
2019-01-04T09:40:42.053Z,27.73
2019-01-04T09:43:10.679Z,29.10
2019-01-04T09:45:39.304Z,26.63
2019-01-04T09:48:07.832Z,26.87
2019-01-04T09:50:36.385Z,29.10
2019-01-04T09:53:04.985Z,27.60
2019-01-04T09:55:33.575Z,28.10
2019-01-04T09:58:02.386Z,29.87
2019-01-04T10:00:30.869Z,31.13
2019-01-04T10:02:59.571Z,28.30
2019-01-04T10:05:28.356Z,30.67
2019-01-04T10:07:56.989Z,32.33
2019-01-04T10:10:25.452Z,26.63
2019-01-04T10:12:54.152Z,28.33
2019-01-04T10:15:22.764Z,30.37
2019-01-04T10:17:51.327Z,31.83
2019-01-04T10:20:19.968Z,32.20
2019-01-04T10:22:48.685Z,26.40
2019-01-04T10:25:17.241Z,28.37
2019-01-04T10:27:45.820Z,34.00
2019-01-04T10:30:54.305Z,26.17
2019-01-04T10:33:22.880Z,29.33
2019-01-04T10:35:51.498Z,28.17
2019-01-04T10:38:19.864Z,28.77
2019-01-04T10:40:48.873Z,31.17
2019-01-04T10:43:17.502Z,27.00
2019-01-04T10:45:46.085Z,28.93
2019-01-04T10:48:14.649Z,29.73
2019-01-04T10:50:43.306Z,28.97
2019-01-04T10:53:12.100Z,30.93
2019-01-04T10:55:40.974Z,32.40
2019-01-04T10:58:09.529Z,29.37
2019-01-04T11:00:38.171Z,30.90
2019-01-04T11:03:06.875Z,24.90
2019-01-04T11:05:35.546Z,24.80
2019-01-04T11:08:04.049Z,25.10
2019-01-04T11:10:32.698Z,23.47
2019-01-04T11:13:01.452Z,24.57
2019-01-04T11:15:31.338Z,27.30
2019-01-04T11:17:59.955Z,21.73
2019-01-04T11:20:47.870Z,22.80
2019-01-04T11:29:57.479Z,24.13
2019-01-04T11:33:06.084Z,31.23
2019-01-04T11:36:13.537Z,22.93
2019-01-04T11:39:22.022Z,24.83
2019-01-04T11:42:30.663Z,25.33
2019-01-04T11:45:37.933Z,27.37
2019-01-04T11:48:46.623Z,22.70
2019-01-04T11:51:27.843Z,20.03
2019-01-04T11:53:56.325Z,25.50
2019-01-04T11:56:25.013Z,26.27
2019-01-04T11:58:53.809Z,19.47
2019-01-04T12:01:22.394Z,22.90
2019-01-04T12:04:10.313Z,19.83
2019-01-04T12:06:39.030Z,18.97
2019-01-04T12:09:47.534Z,19.70
2019-01-04T12:12:16.111Z,20.10
2019-01-04T12:14:44.708Z,19.80
2019-01-04T12:17:14.162Z,18.70
2019-01-04T12:19:42.929Z,19.97
2019-01-04T12:22:11.662Z,27.30
2019-01-04T12:24:40.308Z,23.10
2019-01-04T12:27:08.964Z,17.33
2019-01-04T12:29:37.618Z,18.37
2019-01-04T12:32:06.149Z,19.37
2019-01-04T12:34:34.680Z,20.67
2019-01-04T12:37:23.955Z,17.33
2019-01-04T12:39:52.565Z,21.40
2019-01-04T12:42:21.202Z,20.03
2019-01-04T12:44:49.844Z,17.20
2019-01-04T12:47:18.498Z,17.70
2019-01-04T12:49:47.190Z,27.97
2019-01-04T12:52:15.823Z,17.13
2019-01-04T12:54:44.629Z,17.03
2019-01-04T12:57:13.068Z,16.37
2019-01-04T12:59:41.765Z,15.70
2019-01-04T13:02:10.228Z,17.20
2019-01-04T13:04:38.949Z,18.03
2019-01-04T13:10:15.682Z,19.03
2019-01-04T13:12:44.199Z,16.57
2019-01-04T13:15:12.762Z,17.40
2019-01-04T13:17:41.362Z,17.40
2019-01-04T13:20:09.899Z,17.30
2019-01-04T13:22:38.537Z,18.37
2019-01-04T13:25:46.978Z,17.37
2019-01-04T13:28:15.627Z,17.30
2019-01-04T13:30:44.223Z,16.97
2019-01-04T13:33:12.770Z,18.40
2019-01-04T13:35:41.528Z,19.27
2019-01-04T13:38:10.141Z,14.97
2019-01-04T13:40:38.736Z,19.30
2019-01-04T13:43:07.391Z,16.33
2019-01-04T13:45:36.160Z,15.90
2019-01-04T13:48:04.759Z,15.40
2019-01-04T13:50:33.420Z,16.57
2019-01-04T13:53:02.080Z,14.90
2019-01-04T13:55:30.594Z,16.43
2019-01-04T13:57:59.087Z,17.13
2019-01-04T14:00:27.605Z,16.87
2019-01-04T14:02:56.080Z,14.80
2019-01-04T14:05:24.592Z,14.00
2019-01-04T14:07:53.257Z,12.73
2019-01-04T14:10:21.722Z,13.87
2019-01-04T14:12:50.254Z,20.17
2019-01-04T14:15:18.814Z,15.23
2019-01-04T14:17:47.494Z,17.30
2019-01-04T14:20:16.299Z,14.07
2019-01-04T14:22:44.864Z,16.63
2019-01-04T14:25:13.437Z,15.17
2019-01-04T14:27:42.040Z,19.33
2019-01-04T14:30:50.529Z,16.03
2019-01-04T14:33:19.052Z,14.97
2019-01-04T14:35:47.597Z,14.93
2019-01-04T14:38:16.125Z,15.07
2019-01-04T14:40:44.698Z,16.83
2019-01-04T14:43:13.260Z,16.50
2019-01-04T14:45:41.856Z,24.00
2019-01-04T14:48:10.415Z,16.50
2019-01-04T14:50:39.209Z,15.40
2019-01-04T14:53:07.746Z,13.40
2019-01-04T14:55:36.322Z,13.30
2019-01-04T14:58:04.919Z,13.50
2019-01-04T15:00:33.774Z,15.43
2019-01-04T15:03:02.389Z,13.47
2019-01-04T15:05:30.901Z,13.13
2019-01-04T15:07:59.420Z,17.60
2019-01-04T15:10:27.966Z,14.63
2019-01-04T15:12:56.945Z,13.70
2019-01-04T15:15:25.809Z,16.77
2019-01-04T15:17:54.174Z,14.60
2019-01-04T15:20:22.649Z,15.70
2019-01-04T15:22:51.107Z,14.60
2019-01-04T15:25:19.581Z,20.50
2019-01-04T15:27:48.149Z,26.83
2019-01-04T15:30:16.663Z,15.43
2019-01-04T15:32:45.222Z,12.67
2019-01-04T15:35:13.821Z,13.10
2019-01-04T15:37:42.393Z,16.60
2019-01-04T15:40:10.848Z,15.37
2019-01-04T15:42:39.459Z,13.40
2019-01-04T15:45:47.906Z,15.40
2019-01-04T15:48:16.413Z,19.10
2019-01-04T15:50:44.999Z,14.13
2019-01-04T15:53:13.436Z,21.10
2019-01-04T15:55:41.942Z,19.23
2019-01-04T15:58:10.398Z,25.40
2019-01-04T16:00:39.039Z,23.80
2019-01-04T16:03:07.755Z,20.10
2019-01-04T16:05:36.300Z,17.37
2019-01-04T16:08:04.833Z,22.13
2019-01-04T16:10:33.370Z,17.07
2019-01-04T16:13:01.920Z,19.70
2019-01-04T16:15:30.603Z,17.77
2019-01-04T16:17:59.223Z,19.10
2019-01-04T16:20:28.214Z,15.30
2019-01-04T16:22:56.709Z,18.07
2019-01-04T16:25:25.319Z,20.30
2019-01-04T16:27:53.734Z,20.50
2019-01-04T16:30:22.275Z,17.17
2019-01-04T16:32:50.744Z,22.93
2019-01-04T16:35:40.006Z,25.00
2019-01-04T16:38:08.899Z,29.80
2019-01-04T16:40:37.481Z,21.43
2019-01-04T16:43:06.070Z,24.90
2019-01-04T16:48:23.730Z,26.97
2019-01-04T16:50:52.200Z,36.40
2019-01-04T16:53:20.751Z,26.40
2019-01-04T16:55:49.213Z,27.10
2019-01-04T16:58:17.665Z,27.67
2019-01-04T17:00:46.414Z,30.80
2019-01-04T17:03:14.927Z,29.53
2019-01-04T17:05:43.396Z,29.03
2019-01-04T17:08:11.861Z,23.67
2019-01-04T17:10:40.776Z,49.20
2019-01-04T17:13:09.278Z,26.33
2019-01-04T17:15:38.040Z,39.80
2019-01-04T17:18:06.581Z,30.73
2019-01-04T17:20:35.277Z,23.13
2019-01-04T17:23:03.815Z,34.73
2019-01-04T17:25:32.321Z,24.97
2019-01-04T17:28:00.827Z,22.13
2019-01-04T17:30:29.330Z,24.73
2019-01-04T17:35:31.395Z,29.60
2019-01-04T17:37:59.878Z,22.90
2019-01-04T17:40:28.336Z,20.20
2019-01-04T17:42:56.897Z,28.10
2019-01-04T17:45:25.440Z,25.10
2019-01-04T17:47:53.997Z,21.03
2019-01-04T17:50:22.555Z,19.90
2019-01-04T17:52:51.021Z,25.93
2019-01-04T17:55:19.588Z,34.43
2019-01-04T17:57:48.096Z,26.60
2019-01-04T18:00:17.076Z,31.87
2019-01-04T18:02:45.637Z,17.70
2019-01-04T18:05:14.233Z,24.00
2019-01-04T18:07:42.811Z,23.57
2019-01-04T18:10:11.717Z,18.57
2019-01-04T18:12:40.722Z,20.83
2019-01-04T18:15:09.262Z,26.70
2019-01-04T18:17:37.812Z,26.33
2019-01-04T18:20:46.282Z,23.23
2019-01-04T18:23:15.195Z,23.97
2019-01-04T18:25:43.665Z,25.20
2019-01-04T18:28:12.151Z,30.10
2019-01-04T18:30:40.651Z,39.20
2019-01-04T18:33:09.015Z,19.93
2019-01-04T18:35:37.505Z,21.80
2019-01-04T18:38:06.057Z,23.90
2019-01-04T18:40:34.575Z,21.80
2019-01-04T18:43:03.389Z,22.30
2019-01-04T18:45:32.153Z,22.40
2019-01-04T18:48:00.603Z,31.33
2019-01-04T18:53:08.271Z,33.43
2019-01-04T18:55:36.737Z,25.63
2019-01-04T18:58:05.238Z,23.90
2019-01-04T19:00:33.773Z,23.97
2019-01-04T19:03:02.207Z,23.70
2019-01-04T19:05:30.750Z,22.83
2019-01-04T19:07:59.350Z,28.97
2019-01-04T19:10:27.931Z,29.43
2019-01-04T19:12:56.632Z,25.90
2019-01-04T19:15:25.162Z,26.77
2019-01-04T19:17:53.715Z,33.40
2019-01-04T19:20:22.233Z,25.90
2019-01-04T19:22:51.167Z,24.27
2019-01-04T19:28:08.847Z,15.53
2019-01-04T19:30:37.337Z,29.50
2019-01-04T19:33:05.934Z,28.60
2019-01-04T19:35:34.483Z,27.73
2019-01-04T19:38:03.099Z,29.90
2019-01-04T19:40:31.742Z,29.10
2019-01-04T19:43:19.767Z,21.60
2019-01-04T19:46:07.606Z,27.27
2019-01-04T19:48:36.147Z,22.03
2019-01-04T19:51:05.191Z,35.33
2019-01-04T19:53:40.931Z,20.13
2019-01-04T19:56:09.363Z,31.17
2019-01-04T19:58:37.854Z,37.63
2019-01-04T20:01:26.866Z,33.40
2019-01-04T20:03:55.392Z,40.40
2019-01-04T20:07:04.329Z,23.90
2019-01-04T20:10:30.651Z,33.27
2019-01-04T20:13:56.923Z,24.73
2019-01-04T20:17:05.396Z,15.60
2019-01-04T20:20:13.874Z,39.57
2019-01-04T20:23:01.558Z,26.83
2019-01-04T20:25:49.240Z,25.00
2019-01-04T20:28:37.092Z,37.70
2019-01-04T20:31:24.834Z,23.60
2019-01-04T20:34:12.562Z,20.87
2019-01-04T20:37:00.254Z,20.67
2019-01-04T20:42:37.180Z,27.70
2019-01-04T20:45:45.613Z,32.53
2019-01-04T20:51:12.260Z,15.53
2019-01-04T20:56:49.004Z,20.70
2019-01-04T20:59:36.651Z,28.80
2019-01-04T21:02:24.539Z,23.67
2019-01-04T21:10:36.590Z,27.07
2019-01-04T21:13:24.271Z,28.27
2019-01-04T21:16:12.078Z,31.23
2019-01-04T21:18:59.643Z,25.00
2019-01-04T21:21:47.268Z,23.90
2019-01-04T21:27:24.041Z,24.27
2019-01-04T21:30:11.903Z,21.67
2019-01-04T21:35:35.354Z,25.60
2019-01-04T21:38:23.037Z,30.57
2019-01-04T21:43:59.779Z,23.67
2019-01-04T21:46:47.441Z,38.87
2019-01-04T21:49:35.091Z,27.73
2019-01-04T21:52:22.744Z,22.07
2019-01-04T21:55:10.531Z,28.70
2019-01-04T21:57:58.247Z,26.73
2019-01-04T22:00:46.219Z,26.80
2019-01-04T22:03:53.230Z,26.00
2019-01-04T22:06:40.940Z,24.00
2019-01-04T22:12:36.805Z,26.03
2019-01-04T22:15:45.258Z,23.87
2019-01-04T22:21:11.925Z,29.87
2019-01-04T22:23:59.531Z,25.17
2019-01-04T22:26:47.259Z,22.43
2019-01-04T22:32:24.091Z,27.33
2019-01-04T22:35:11.745Z,24.00
2019-01-04T22:40:34.994Z,24.37
2019-01-04T22:43:22.687Z,20.20
2019-01-04T22:46:10.432Z,23.00
2019-01-04T22:48:57.987Z,17.77
2019-01-04T22:57:13.345Z,20.37
2019-01-04T23:02:50.070Z,21.43
2019-01-04T23:05:37.762Z,24.77
2019-01-04T23:08:25.466Z,21.10
2019-01-04T23:11:13.097Z,27.57
2019-01-04T23:14:01.292Z,20.90
2019-01-04T23:16:48.891Z,24.60
2019-01-04T23:19:36.596Z,19.87
2019-01-04T23:25:32.612Z,21.37
2019-01-04T23:28:20.138Z,20.07
2019-01-04T23:31:08.125Z,21.80
2019-01-04T23:33:56.026Z,20.83
2019-01-04T23:36:43.745Z,16.83
2019-01-04T23:39:31.346Z,18.53
2019-01-04T23:42:18.957Z,19.83
2019-01-04T23:45:06.634Z,21.23
2019-01-04T23:47:54.231Z,17.40
2019-01-04T23:50:41.837Z,19.70
2019-01-04T23:53:29.484Z,19.30
2019-01-04T23:56:17.006Z,21.60
2019-01-04T23:59:04.725Z,18.23
